sensor_id;sensor_type;location;lat;lon;timestamp;P1;durP1;ratioP1;P2;durP2;ratioP2
32872;SDS011;19224;52.462;16.898;2024-01-06T00:02:26;20.48;;;10.05;;
32872;SDS011;19224;52.462;16.898;2024-01-06T00:04:57;21.85;;;11.90;;
32872;SDS011;19224;52.462;16.898;2024-01-06T00:07:27;21.55;;;10.93;;
32872;SDS011;19224;52.462;16.898;2024-01-06T00:09:58;20.95;;;10.82;;
32872;SDS011;19224;52.462;16.898;2024-01-06T00:12:28;19.77;;;10.93;;
32872;SDS011;19224;52.462;16.898;2024-01-06T00:15:01;20.92;;;10.32;;
32872;SDS011;19224;52.462;16.898;2024-01-06T00:17:34;20.23;;;10.90;;
32872;SDS011;19224;52.462;16.898;2024-01-06T00:20:05;22.50;;;10.37;;
32872;SDS011;19224;52.462;16.898;2024-01-06T00:22:40;20.63;;;11.23;;
32872;SDS011;19224;52.462;16.898;2024-01-06T00:25:12;20.52;;;10.43;;
32872;SDS011;19224;52.462;16.898;2024-01-06T00:27:42;21.87;;;10.78;;
32872;SDS011;19224;52.462;16.898;2024-01-06T00:30:13;24.95;;;11.93;;
32872;SDS011;19224;52.462;16.898;2024-01-06T00:32:59;20.17;;;11.10;;
32872;SDS011;19224;52.462;16.898;2024-01-06T00:35:32;24.53;;;12.07;;
32872;SDS011;19224;52.462;16.898;2024-01-06T00:38:05;20.80;;;11.55;;
32872;SDS011;19224;52.462;16.898;2024-01-06T00:40:35;22.65;;;11.73;;
32872;SDS011;19224;52.462;16.898;2024-01-06T00:43:07;20.03;;;11.23;;
32872;SDS011;19224;52.462;16.898;2024-01-06T00:45:39;20.55;;;11.22;;
32872;SDS011;19224;52.462;16.898;2024-01-06T00:48:12;23.27;;;11.65;;
32872;SDS011;19224;52.462;16.898;2024-01-06T00:50:42;22.42;;;11.80;;
32872;SDS011;19224;52.462;16.898;2024-01-06T00:53:14;19.77;;;11.12;;
32872;SDS011;19224;52.462;16.898;2024-01-06T00:55:44;20.00;;;11.93;;
32872;SDS011;19224;52.462;16.898;2024-01-06T00:58:14;21.93;;;11.80;;
32872;SDS011;19224;52.462;16.898;2024-01-06T01:00:45;25.07;;;12.70;;
32872;SDS011;19224;52.462;16.898;2024-01-06T01:03:22;22.70;;;11.43;;
32872;SDS011;19224;52.462;16.898;2024-01-06T01:05:49;24.72;;;12.25;;
32872;SDS011;19224;52.462;16.898;2024-01-06T01:08:20;24.27;;;12.20;;
32872;SDS011;19224;52.462;16.898;2024-01-06T01:10:56;22.73;;;11.63;;
32872;SDS011;19224;52.462;16.898;2024-01-06T01:13:27;20.85;;;11.48;;
32872;SDS011;19224;52.462;16.898;2024-01-06T01:15:58;23.45;;;12.03;;
32872;SDS011;19224;52.462;16.898;2024-01-06T01:18:29;22.95;;;11.93;;
32872;SDS011;19224;52.462;16.898;2024-01-06T01:20:59;20.73;;;12.03;;
32872;SDS011;19224;52.462;16.898;2024-01-06T01:23:32;22.58;;;12.23;;
32872;SDS011;19224;52.462;16.898;2024-01-06T01:26:04;23.20;;;12.00;;
32872;SDS011;19224;52.462;16.898;2024-01-06T01:28:34;23.73;;;12.27;;
32872;SDS011;19224;52.462;16.898;2024-01-06T01:31:07;22.50;;;11.97;;
32872;SDS011;19224;52.462;16.898;2024-01-06T01:33:37;22.67;;;11.70;;
32872;SDS011;19224;52.462;16.898;2024-01-06T01:36:09;21.07;;;11.60;;
32872;SDS011;19224;52.462;16.898;2024-01-06T01:38:43;22.00;;;12.27;;
32872;SDS011;19224;52.462;16.898;2024-01-06T01:41:14;23.37;;;11.30;;
32872;SDS011;19224;52.462;16.898;2024-01-06T01:43:50;21.40;;;11.50;;
32872;SDS011;19224;52.462;16.898;2024-01-06T01:46:29;20.10;;;11.57;;
32872;SDS011;19224;52.462;16.898;2024-01-06T01:49:01;20.47;;;11.57;;
32872;SDS011;19224;52.462;16.898;2024-01-06T01:51:33;18.90;;;10.40;;
32872;SDS011;19224;52.462;16.898;2024-01-06T01:54:06;18.80;;;10.70;;
32872;SDS011;19224;52.462;16.898;2024-01-06T01:56:39;21.05;;;10.82;;
32872;SDS011;19224;52.462;16.898;2024-01-06T01:59:15;23.07;;;11.28;;
32872;SDS011;19224;52.462;16.898;2024-01-06T02:01:47;19.95;;;11.00;;
32872;SDS011;19224;52.462;16.898;2024-01-06T02:04:18;21.80;;;10.82;;
32872;SDS011;19224;52.462;16.898;2024-01-06T02:06:48;17.70;;;10.00;;
32872;SDS011;19224;52.462;16.898;2024-01-06T02:09:18;20.00;;;10.53;;
32872;SDS011;19224;52.462;16.898;2024-01-06T02:11:51;19.20;;;10.23;;
32872;SDS011;19224;52.462;16.898;2024-01-06T02:14:26;18.67;;;10.93;;
32872;SDS011;19224;52.462;16.898;2024-01-06T02:16:57;18.57;;;10.18;;
32872;SDS011;19224;52.462;16.898;2024-01-06T02:19:28;19.92;;;10.55;;
32872;SDS011;19224;52.462;16.898;2024-01-06T02:21:58;21.20;;;10.70;;
32872;SDS011;19224;52.462;16.898;2024-01-06T02:24:29;18.50;;;9.67;;
32872;SDS011;19224;52.462;16.898;2024-01-06T02:27:00;17.55;;;10.10;;
32872;SDS011;19224;52.462;16.898;2024-01-06T02:29:32;19.20;;;10.50;;
32872;SDS011;19224;52.462;16.898;2024-01-06T02:32:03;20.88;;;10.60;;
32872;SDS011;19224;52.462;16.898;2024-01-06T02:34:34;19.50;;;10.07;;
32872;SDS011;19224;52.462;16.898;2024-01-06T02:37:12;18.92;;;10.13;;
32872;SDS011;19224;52.462;16.898;2024-01-06T02:39:44;18.07;;;9.97;;
32872;SDS011;19224;52.462;16.898;2024-01-06T02:42:14;17.80;;;10.50;;
32872;SDS011;19224;52.462;16.898;2024-01-06T02:44:45;19.73;;;10.82;;
32872;SDS011;19224;52.462;16.898;2024-01-06T02:47:18;21.00;;;10.58;;
32872;SDS011;19224;52.462;16.898;2024-01-06T02:49:49;20.53;;;10.90;;
32872;SDS011;19224;52.462;16.898;2024-01-06T02:52:20;17.80;;;10.23;;
32872;SDS011;19224;52.462;16.898;2024-01-06T02:54:51;18.00;;;9.65;;
32872;SDS011;19224;52.462;16.898;2024-01-06T02:57:23;17.73;;;9.97;;
32872;SDS011;19224;52.462;16.898;2024-01-06T02:59:54;19.67;;;10.27;;
32872;SDS011;19224;52.462;16.898;2024-01-06T03:02:24;17.20;;;10.13;;
32872;SDS011;19224;52.462;16.898;2024-01-06T03:04:54;16.50;;;9.87;;
32872;SDS011;19224;52.462;16.898;2024-01-06T03:07:24;16.70;;;10.13;;
32872;SDS011;19224;52.462;16.898;2024-01-06T03:09:55;16.30;;;9.77;;
32872;SDS011;19224;52.462;16.898;2024-01-06T03:12:25;18.50;;;10.10;;
32872;SDS011;19224;52.462;16.898;2024-01-06T03:14:55;17.73;;;9.90;;
32872;SDS011;19224;52.462;16.898;2024-01-06T03:17:27;18.67;;;9.80;;
32872;SDS011;19224;52.462;16.898;2024-01-06T03:20:01;16.20;;;9.60;;
32872;SDS011;19224;52.462;16.898;2024-01-06T03:22:33;16.47;;;9.57;;
32872;SDS011;19224;52.462;16.898;2024-01-06T03:25:06;17.30;;;9.97;;
32872;SDS011;19224;52.462;16.898;2024-01-06T03:27:41;17.77;;;9.73;;
32872;SDS011;19224;52.462;16.898;2024-01-06T03:30:12;20.92;;;10.75;;
32872;SDS011;19224;52.462;16.898;2024-01-06T03:32:43;15.45;;;9.50;;
32872;SDS011;19224;52.462;16.898;2024-01-06T03:35:16;18.47;;;10.00;;
32872;SDS011;19224;52.462;16.898;2024-01-06T03:37:51;17.77;;;10.73;;
32872;SDS011;19224;52.462;16.898;2024-01-06T03:40:21;15.30;;;10.23;;
32872;SDS011;19224;52.462;16.898;2024-01-06T03:42:54;15.60;;;9.47;;
32872;SDS011;19224;52.462;16.898;2024-01-06T03:45:23;16.03;;;9.80;;
32872;SDS011;19224;52.462;16.898;2024-01-06T03:47:54;17.60;;;10.40;;
32872;SDS011;19224;52.462;16.898;2024-01-06T03:50:24;16.73;;;9.93;;
32872;SDS011;19224;52.462;16.898;2024-01-06T03:52:54;16.07;;;10.53;;
32872;SDS011;19224;52.462;16.898;2024-01-06T03:55:24;16.77;;;10.03;;
32872;SDS011;19224;52.462;16.898;2024-01-06T03:57:54;16.80;;;10.37;;
32872;SDS011;19224;52.462;16.898;2024-01-06T04:00:25;16.80;;;10.50;;
32872;SDS011;19224;52.462;16.898;2024-01-06T04:02:56;17.73;;;10.20;;
32872;SDS011;19224;52.462;16.898;2024-01-06T04:05:26;19.40;;;10.38;;
32872;SDS011;19224;52.462;16.898;2024-01-06T04:07:58;18.13;;;10.53;;
32872;SDS011;19224;52.462;16.898;2024-01-06T04:10:28;18.05;;;11.18;;
32872;SDS011;19224;52.462;16.898;2024-01-06T04:13:03;16.47;;;9.90;;
32872;SDS011;19224;52.462;16.898;2024-01-06T04:15:40;16.93;;;9.90;;
32872;SDS011;19224;52.462;16.898;2024-01-06T04:18:13;16.40;;;10.50;;
32872;SDS011;19224;52.462;16.898;2024-01-06T04:20:46;15.80;;;9.50;;
32872;SDS011;19224;52.462;16.898;2024-01-06T04:23:16;15.57;;;9.57;;
32872;SDS011;19224;52.462;16.898;2024-01-06T04:25:52;16.20;;;9.73;;
32872;SDS011;19224;52.462;16.898;2024-01-06T04:28:22;16.82;;;10.20;;
32872;SDS011;19224;52.462;16.898;2024-01-06T04:30:53;15.37;;;9.80;;
32872;SDS011;19224;52.462;16.898;2024-01-06T04:33:23;14.23;;;8.88;;
32872;SDS011;19224;52.462;16.898;2024-01-06T04:35:53;16.93;;;9.80;;
32872;SDS011;19224;52.462;16.898;2024-01-06T04:38:25;16.47;;;9.63;;
32872;SDS011;19224;52.462;16.898;2024-01-06T04:41:00;15.73;;;9.30;;
32872;SDS011;19224;52.462;16.898;2024-01-06T04:43:42;14.33;;;9.07;;
32872;SDS011;19224;52.462;16.898;2024-01-06T04:46:14;14.47;;;9.07;;
32872;SDS011;19224;52.462;16.898;2024-01-06T04:48:48;15.83;;;8.80;;
32872;SDS011;19224;52.462;16.898;2024-01-06T04:51:19;14.80;;;8.50;;
32872;SDS011;19224;52.462;16.898;2024-01-06T04:53:49;14.93;;;8.63;;
32872;SDS011;19224;52.462;16.898;2024-01-06T04:56:24;14.73;;;8.43;;
32872;SDS011;19224;52.462;16.898;2024-01-06T04:58:58;13.40;;;7.97;;
32872;SDS011;19224;52.462;16.898;2024-01-06T05:01:29;14.00;;;8.20;;
32872;SDS011;19224;52.462;16.898;2024-01-06T05:04:02;13.13;;;8.70;;
32872;SDS011;19224;52.462;16.898;2024-01-06T05:06:33;12.97;;;8.57;;
32872;SDS011;19224;52.462;16.898;2024-01-06T05:09:03;12.83;;;7.70;;
32872;SDS011;19224;52.462;16.898;2024-01-06T05:11:38;14.57;;;9.00;;
32872;SDS011;19224;52.462;16.898;2024-01-06T05:14:12;15.67;;;9.00;;
32872;SDS011;19224;52.462;16.898;2024-01-06T05:16:46;15.33;;;8.77;;
32872;SDS011;19224;52.462;16.898;2024-01-06T05:19:21;14.47;;;8.27;;
32872;SDS011;19224;52.462;16.898;2024-01-06T05:21:51;14.37;;;8.50;;
32872;SDS011;19224;52.462;16.898;2024-01-06T05:24:22;14.20;;;8.43;;
32872;SDS011;19224;52.462;16.898;2024-01-06T05:26:54;12.73;;;8.00;;
32872;SDS011;19224;52.462;16.898;2024-01-06T05:29:24;12.00;;;8.10;;
32872;SDS011;19224;52.462;16.898;2024-01-06T05:31:54;11.97;;;7.77;;
32872;SDS011;19224;52.462;16.898;2024-01-06T05:34:25;15.13;;;8.33;;
32872;SDS011;19224;52.462;16.898;2024-01-06T05:36:57;12.90;;;8.07;;
32872;SDS011;19224;52.462;16.898;2024-01-06T05:39:29;15.40;;;8.45;;
32872;SDS011;19224;52.462;16.898;2024-01-06T05:42:02;13.53;;;8.17;;
32872;SDS011;19224;52.462;16.898;2024-01-06T05:44:35;12.83;;;8.33;;
32872;SDS011;19224;52.462;16.898;2024-01-06T05:47:05;12.73;;;8.13;;
32872;SDS011;19224;52.462;16.898;2024-01-06T05:49:41;17.67;;;8.37;;
32872;SDS011;19224;52.462;16.898;2024-01-06T05:52:18;13.27;;;8.40;;
32872;SDS011;19224;52.462;16.898;2024-01-06T05:54:49;13.23;;;8.67;;
32872;SDS011;19224;52.462;16.898;2024-01-06T05:57:21;14.37;;;8.70;;
32872;SDS011;19224;52.462;16.898;2024-01-06T05:59:54;16.07;;;8.28;;
32872;SDS011;19224;52.462;16.898;2024-01-06T06:02:24;13.43;;;8.20;;
32872;SDS011;19224;52.462;16.898;2024-01-06T06:04:54;13.53;;;8.13;;
32872;SDS011;19224;52.462;16.898;2024-01-06T06:07:28;13.60;;;7.70;;
32872;SDS011;19224;52.462;16.898;2024-01-06T06:10:01;12.97;;;7.50;;
32872;SDS011;19224;52.462;16.898;2024-01-06T06:12:33;12.93;;;8.33;;
32872;SDS011;19224;52.462;16.898;2024-01-06T06:15:06;12.50;;;7.70;;
32872;SDS011;19224;52.462;16.898;2024-01-06T06:17:37;12.47;;;7.70;;
32872;SDS011;19224;52.462;16.898;2024-01-06T06:20:11;13.60;;;8.57;;
32872;SDS011;19224;52.462;16.898;2024-01-06T06:22:45;14.00;;;8.03;;
32872;SDS011;19224;52.462;16.898;2024-01-06T06:25:17;11.80;;;7.67;;
32872;SDS011;19224;52.462;16.898;2024-01-06T06:27:51;14.80;;;8.37;;
32872;SDS011;19224;52.462;16.898;2024-01-06T06:30:21;15.70;;;8.57;;
32872;SDS011;19224;52.462;16.898;2024-01-06T06:32:52;11.73;;;7.67;;
32872;SDS011;19224;52.462;16.898;2024-01-06T06:35:25;13.40;;;7.93;;
32872;SDS011;19224;52.462;16.898;2024-01-06T06:37:56;13.23;;;7.90;;
32872;SDS011;19224;52.462;16.898;2024-01-06T06:40:34;12.87;;;8.20;;
32872;SDS011;19224;52.462;16.898;2024-01-06T06:43:06;12.57;;;7.67;;
32872;SDS011;19224;52.462;16.898;2024-01-06T06:45:40;12.57;;;7.40;;
32872;SDS011;19224;52.462;16.898;2024-01-06T06:48:10;12.77;;;8.30;;
32872;SDS011;19224;52.462;16.898;2024-01-06T06:50:42;12.63;;;7.60;;
32872;SDS011;19224;52.462;16.898;2024-01-06T06:53:17;13.73;;;7.63;;
32872;SDS011;19224;52.462;16.898;2024-01-06T06:55:49;14.30;;;8.30;;
32872;SDS011;19224;52.462;16.898;2024-01-06T06:58:23;13.43;;;7.87;;
32872;SDS011;19224;52.462;16.898;2024-01-06T07:00:58;13.47;;;8.17;;
32872;SDS011;19224;52.462;16.898;2024-01-06T07:03:28;13.20;;;8.30;;
32872;SDS011;19224;52.462;16.898;2024-01-06T07:05:59;14.13;;;8.53;;
32872;SDS011;19224;52.462;16.898;2024-01-06T07:08:30;14.70;;;9.13;;
32872;SDS011;19224;52.462;16.898;2024-01-06T07:11:06;17.53;;;9.83;;
32872;SDS011;19224;52.462;16.898;2024-01-06T07:13:35;16.87;;;10.07;;
32872;SDS011;19224;52.462;16.898;2024-01-06T07:16:08;19.60;;;10.30;;
32872;SDS011;19224;52.462;16.898;2024-01-06T07:18:39;22.77;;;11.70;;
32872;SDS011;19224;52.462;16.898;2024-01-06T07:21:09;19.37;;;11.83;;
32872;SDS011;19224;52.462;16.898;2024-01-06T07:23:42;22.10;;;12.23;;
32872;SDS011;19224;52.462;16.898;2024-01-06T07:26:12;22.80;;;12.27;;
32872;SDS011;19224;52.462;16.898;2024-01-06T07:28:42;19.53;;;11.80;;
32872;SDS011;19224;52.462;16.898;2024-01-06T07:31:15;26.67;;;12.07;;
32872;SDS011;19224;52.462;16.898;2024-01-06T07:33:50;23.13;;;11.93;;
32872;SDS011;19224;52.462;16.898;2024-01-06T07:36:20;20.37;;;11.97;;
32872;SDS011;19224;52.462;16.898;2024-01-06T07:38:51;24.00;;;12.87;;
32872;SDS011;19224;52.462;16.898;2024-01-06T07:41:21;22.57;;;12.40;;
32872;SDS011;19224;52.462;16.898;2024-01-06T07:43:52;21.03;;;11.90;;
32872;SDS011;19224;52.462;16.898;2024-01-06T07:46:22;19.97;;;11.70;;
32872;SDS011;19224;52.462;16.898;2024-01-06T07:48:54;18.10;;;10.67;;
32872;SDS011;19224;52.462;16.898;2024-01-06T07:51:24;22.53;;;11.87;;
32872;SDS011;19224;52.462;16.898;2024-01-06T07:53:55;20.00;;;11.20;;
32872;SDS011;19224;52.462;16.898;2024-01-06T07:56:28;19.83;;;10.70;;
32872;SDS011;19224;52.462;16.898;2024-01-06T07:58:58;23.87;;;11.50;;
32872;SDS011;19224;52.462;16.898;2024-01-06T08:01:31;21.47;;;11.83;;
32872;SDS011;19224;52.462;16.898;2024-01-06T08:04:01;21.10;;;11.23;;
32872;SDS011;19224;52.462;16.898;2024-01-06T08:06:32;18.30;;;10.57;;
32872;SDS011;19224;52.462;16.898;2024-01-06T08:09:04;20.63;;;11.13;;
32872;SDS011;19224;52.462;16.898;2024-01-06T08:11:35;18.57;;;10.50;;
32872;SDS011;19224;52.462;16.898;2024-01-06T08:14:06;20.33;;;10.43;;
32872;SDS011;19224;52.462;16.898;2024-01-06T08:16:38;20.07;;;10.13;;
32872;SDS011;19224;52.462;16.898;2024-01-06T08:19:08;17.47;;;10.30;;
32872;SDS011;19224;52.462;16.898;2024-01-06T08:21:39;21.80;;;9.70;;
32872;SDS011;19224;52.462;16.898;2024-01-06T08:24:17;15.57;;;9.77;;
32872;SDS011;19224;52.462;16.898;2024-01-06T08:26:47;19.23;;;10.03;;
32872;SDS011;19224;52.462;16.898;2024-01-06T08:29:17;17.53;;;9.97;;
32872;SDS011;19224;52.462;16.898;2024-01-06T08:31:47;19.13;;;10.40;;
32872;SDS011;19224;52.462;16.898;2024-01-06T08:34:19;18.13;;;10.27;;
32872;SDS011;19224;52.462;16.898;2024-01-06T08:36:50;16.70;;;9.57;;
32872;SDS011;19224;52.462;16.898;2024-01-06T08:39:21;17.73;;;9.87;;
32872;SDS011;19224;52.462;16.898;2024-01-06T08:41:52;17.70;;;9.75;;
32872;SDS011;19224;52.462;16.898;2024-01-06T08:44:23;17.50;;;10.30;;
32872;SDS011;19224;52.462;16.898;2024-01-06T08:46:53;18.70;;;10.87;;
32872;SDS011;19224;52.462;16.898;2024-01-06T08:49:24;17.50;;;10.33;;
32872;SDS011;19224;52.462;16.898;2024-01-06T08:51:54;22.63;;;11.77;;
32872;SDS011;19224;52.462;16.898;2024-01-06T08:54:24;21.57;;;11.57;;
32872;SDS011;19224;52.462;16.898;2024-01-06T08:56:55;19.97;;;11.67;;
32872;SDS011;19224;52.462;16.898;2024-01-06T08:59:25;21.00;;;11.37;;
32872;SDS011;19224;52.462;16.898;2024-01-06T09:01:55;20.67;;;11.90;;
32872;SDS011;19224;52.462;16.898;2024-01-06T09:04:30;20.87;;;12.43;;
32872;SDS011;19224;52.462;16.898;2024-01-06T09:07:03;22.70;;;12.67;;
32872;SDS011;19224;52.462;16.898;2024-01-06T09:09:34;21.07;;;11.53;;
32872;SDS011;19224;52.462;16.898;2024-01-06T09:12:04;21.60;;;12.40;;
32872;SDS011;19224;52.462;16.898;2024-01-06T09:14:35;24.77;;;13.27;;
32872;SDS011;19224;52.462;16.898;2024-01-06T09:17:06;24.37;;;12.27;;
32872;SDS011;19224;52.462;16.898;2024-01-06T09:19:37;23.57;;;13.67;;
32872;SDS011;19224;52.462;16.898;2024-01-06T09:22:12;24.63;;;13.85;;
32872;SDS011;19224;52.462;16.898;2024-01-06T09:24:42;25.80;;;13.23;;
32872;SDS011;19224;52.462;16.898;2024-01-06T09:27:13;23.32;;;12.68;;
32872;SDS011;19224;52.462;16.898;2024-01-06T09:29:43;23.87;;;12.27;;
32872;SDS011;19224;52.462;16.898;2024-01-06T09:32:15;22.13;;;12.43;;
32872;SDS011;19224;52.462;16.898;2024-01-06T09:34:45;21.67;;;12.90;;
32872;SDS011;19224;52.462;16.898;2024-01-06T09:37:20;22.10;;;12.60;;
32872;SDS011;19224;52.462;16.898;2024-01-06T09:39:50;25.10;;;11.87;;
32872;SDS011;19224;52.462;16.898;2024-01-06T09:42:20;22.13;;;12.73;;
32872;SDS011;19224;52.462;16.898;2024-01-06T09:44:58;21.37;;;11.90;;
32872;SDS011;19224;52.462;16.898;2024-01-06T09:47:30;22.67;;;12.60;;
32872;SDS011;19224;52.462;16.898;2024-01-06T09:50:06;20.23;;;11.00;;
32872;SDS011;19224;52.462;16.898;2024-01-06T09:52:41;20.73;;;11.83;;
32872;SDS011;19224;52.462;16.898;2024-01-06T09:55:25;21.45;;;11.00;;
32872;SDS011;19224;52.462;16.898;2024-01-06T09:57:56;20.27;;;11.15;;
32872;SDS011;19224;52.462;16.898;2024-01-06T10:00:26;18.50;;;10.90;;
32872;SDS011;19224;52.462;16.898;2024-01-06T10:02:58;18.20;;;11.17;;
32872;SDS011;19224;52.462;16.898;2024-01-06T10:05:28;20.63;;;11.60;;
32872;SDS011;19224;52.462;16.898;2024-01-06T10:08:02;21.00;;;10.93;;
32872;SDS011;19224;52.462;16.898;2024-01-06T10:10:34;22.80;;;11.30;;
32872;SDS011;19224;52.462;16.898;2024-01-06T10:13:08;18.37;;;10.65;;
32872;SDS011;19224;52.462;16.898;2024-01-06T10:15:40;19.20;;;10.75;;
32872;SDS011;19224;52.462;16.898;2024-01-06T10:18:12;20.10;;;10.30;;
32872;SDS011;19224;52.462;16.898;2024-01-06T10:20:45;19.83;;;10.97;;
32872;SDS011;19224;52.462;16.898;2024-01-06T10:23:28;21.40;;;10.55;;
32872;SDS011;19224;52.462;16.898;2024-01-06T10:26:01;16.43;;;10.07;;
32872;SDS011;19224;52.462;16.898;2024-01-06T10:28:31;18.45;;;10.65;;
32872;SDS011;19224;52.462;16.898;2024-01-06T10:31:03;17.10;;;10.18;;
32872;SDS011;19224;52.462;16.898;2024-01-06T10:33:33;17.57;;;10.27;;
32872;SDS011;19224;52.462;16.898;2024-01-06T10:36:06;14.83;;;9.43;;
32872;SDS011;19224;52.462;16.898;2024-01-06T10:38:40;15.37;;;9.43;;
32872;SDS011;19224;52.462;16.898;2024-01-06T10:41:10;18.47;;;9.73;;
32872;SDS011;19224;52.462;16.898;2024-01-06T10:43:43;16.57;;;8.83;;
32872;SDS011;19224;52.462;16.898;2024-01-06T10:46:16;15.33;;;8.70;;
32872;SDS011;19224;52.462;16.898;2024-01-06T10:48:52;16.85;;;9.00;;
32872;SDS011;19224;52.462;16.898;2024-01-06T10:51:27;15.67;;;8.87;;
32872;SDS011;19224;52.462;16.898;2024-01-06T10:54:00;16.12;;;9.18;;
32872;SDS011;19224;52.462;16.898;2024-01-06T10:56:31;14.65;;;7.97;;
32872;SDS011;19224;52.462;16.898;2024-01-06T10:59:07;14.03;;;8.50;;
32872;SDS011;19224;52.462;16.898;2024-01-06T11:01:43;14.03;;;8.67;;
32872;SDS011;19224;52.462;16.898;2024-01-06T11:04:15;15.88;;;8.00;;
32872;SDS011;19224;52.462;16.898;2024-01-06T11:06:46;17.27;;;8.13;;
32872;SDS011;19224;52.462;16.898;2024-01-06T11:09:22;17.27;;;7.37;;
32872;SDS011;19224;52.462;16.898;2024-01-06T11:11:55;13.08;;;7.15;;
32872;SDS011;19224;52.462;16.898;2024-01-06T11:14:28;15.23;;;7.13;;
32872;SDS011;19224;52.462;16.898;2024-01-06T11:17:03;13.13;;;7.03;;
32872;SDS011;19224;52.462;16.898;2024-01-06T11:25:05;14.35;;;6.25;;
32872;SDS011;19224;52.462;16.898;2024-01-06T11:27:38;14.85;;;6.83;;
32872;SDS011;19224;52.462;16.898;2024-01-06T11:30:19;12.87;;;5.77;;
32872;SDS011;19224;52.462;16.898;2024-01-06T11:32:59;12.15;;;5.53;;
32872;SDS011;19224;52.462;16.898;2024-01-06T11:35:39;10.30;;;5.08;;
32872;SDS011;19224;52.462;16.898;2024-01-06T11:38:11;9.30;;;5.40;;
32872;SDS011;19224;52.462;16.898;2024-01-06T11:40:44;8.63;;;4.92;;
32872;SDS011;19224;52.462;16.898;2024-01-06T11:43:14;8.20;;;5.20;;
32872;SDS011;19224;52.462;16.898;2024-01-06T11:45:46;10.43;;;5.23;;
32872;SDS011;19224;52.462;16.898;2024-01-06T11:48:18;10.13;;;5.33;;
32872;SDS011;19224;52.462;16.898;2024-01-06T11:50:56;7.83;;;4.50;;
32872;SDS011;19224;52.462;16.898;2024-01-06T11:53:33;7.83;;;4.65;;
32872;SDS011;19224;52.462;16.898;2024-01-06T11:56:12;9.17;;;4.73;;
32872;SDS011;19224;52.462;16.898;2024-01-06T11:58:39;8.45;;;4.60;;
32872;SDS011;19224;52.462;16.898;2024-01-06T12:01:10;10.00;;;4.73;;
32872;SDS011;19224;52.462;16.898;2024-01-06T12:03:42;7.83;;;4.22;;
32872;SDS011;19224;52.462;16.898;2024-01-06T12:06:24;8.00;;;4.03;;
32872;SDS011;19224;52.462;16.898;2024-01-06T12:09:04;8.20;;;4.47;;
32872;SDS011;19224;52.462;16.898;2024-01-06T12:11:42;9.37;;;4.20;;
32872;SDS011;19224;52.462;16.898;2024-01-06T12:14:18;7.67;;;4.33;;
32872;SDS011;19224;52.462;16.898;2024-01-06T12:16:46;8.00;;;4.35;;
32872;SDS011;19224;52.462;16.898;2024-01-06T12:19:20;7.87;;;4.12;;
32872;SDS011;19224;52.462;16.898;2024-01-06T12:21:50;8.80;;;4.42;;
32872;SDS011;19224;52.462;16.898;2024-01-06T12:24:21;6.35;;;3.80;;
32872;SDS011;19224;52.462;16.898;2024-01-06T12:26:51;9.28;;;4.30;;
32872;SDS011;19224;52.462;16.898;2024-01-06T12:29:26;8.88;;;4.08;;
32872;SDS011;19224;52.462;16.898;2024-01-06T12:31:59;8.93;;;4.43;;
32872;SDS011;19224;52.462;16.898;2024-01-06T12:34:36;9.93;;;4.50;;
32872;SDS011;19224;52.462;16.898;2024-01-06T12:37:08;8.97;;;4.03;;
32872;SDS011;19224;52.462;16.898;2024-01-06T12:39:38;10.95;;;3.85;;
32872;SDS011;19224;52.462;16.898;2024-01-06T12:42:10;8.75;;;4.15;;
32872;SDS011;19224;52.462;16.898;2024-01-06T12:44:44;9.27;;;4.37;;
32872;SDS011;19224;52.462;16.898;2024-01-06T12:47:21;14.40;;;3.90;;
32872;SDS011;19224;52.462;16.898;2024-01-06T12:49:53;8.03;;;4.00;;
32872;SDS011;19224;52.462;16.898;2024-01-06T12:52:23;6.75;;;4.22;;
32872;SDS011;19224;52.462;16.898;2024-01-06T12:54:54;7.42;;;4.03;;
32872;SDS011;19224;52.462;16.898;2024-01-06T12:57:24;9.00;;;4.67;;
32872;SDS011;19224;52.462;16.898;2024-01-06T12:59:54;7.60;;;3.87;;
32872;SDS011;19224;52.462;16.898;2024-01-06T13:02:26;10.20;;;5.03;;
32872;SDS011;19224;52.462;16.898;2024-01-06T13:04:56;7.40;;;3.92;;
32872;SDS011;19224;52.462;16.898;2024-01-06T13:07:27;8.23;;;4.22;;
32872;SDS011;19224;52.462;16.898;2024-01-06T13:09:57;7.37;;;4.13;;
32872;SDS011;19224;52.462;16.898;2024-01-06T13:12:28;9.15;;;4.55;;
32872;SDS011;19224;52.462;16.898;2024-01-06T13:15:06;9.00;;;4.50;;
32872;SDS011;19224;52.462;16.898;2024-01-06T13:17:40;8.90;;;4.47;;
32872;SDS011;19224;52.462;16.898;2024-01-06T13:20:11;8.47;;;4.83;;
32872;SDS011;19224;52.462;16.898;2024-01-06T13:22:42;8.80;;;4.13;;
32872;SDS011;19224;52.462;16.898;2024-01-06T13:25:13;8.75;;;4.25;;
32872;SDS011;19224;52.462;16.898;2024-01-06T13:27:43;7.37;;;4.30;;
32872;SDS011;19224;52.462;16.898;2024-01-06T13:30:16;8.53;;;4.33;;
32872;SDS011;19224;52.462;16.898;2024-01-06T13:32:49;9.73;;;4.20;;
32872;SDS011;19224;52.462;16.898;2024-01-06T13:35:22;9.20;;;4.20;;
32872;SDS011;19224;52.462;16.898;2024-01-06T13:37:53;6.83;;;3.60;;
32872;SDS011;19224;52.462;16.898;2024-01-06T13:40:26;7.20;;;4.00;;
32872;SDS011;19224;52.462;16.898;2024-01-06T13:42:58;9.05;;;4.22;;
32872;SDS011;19224;52.462;16.898;2024-01-06T13:45:35;7.75;;;4.00;;
32872;SDS011;19224;52.462;16.898;2024-01-06T13:48:06;10.13;;;4.30;;
32872;SDS011;19224;52.462;16.898;2024-01-06T13:50:36;8.83;;;4.40;;
32872;SDS011;19224;52.462;16.898;2024-01-06T13:53:08;8.37;;;4.23;;
32872;SDS011;19224;52.462;16.898;2024-01-06T13:55:40;9.10;;;4.03;;
32872;SDS011;19224;52.462;16.898;2024-01-06T13:58:12;10.67;;;4.50;;
32872;SDS011;19224;52.462;16.898;2024-01-06T14:00:43;8.20;;;4.60;;
32872;SDS011;19224;52.462;16.898;2024-01-06T14:03:16;10.00;;;3.83;;
32872;SDS011;19224;52.462;16.898;2024-01-06T14:05:47;8.77;;;4.23;;
32872;SDS011;19224;52.462;16.898;2024-01-06T14:08:19;7.70;;;3.90;;
32872;SDS011;19224;52.462;16.898;2024-01-06T14:10:54;10.57;;;4.97;;
32872;SDS011;19224;52.462;16.898;2024-01-06T14:13:22;5.87;;;3.77;;
32872;SDS011;19224;52.462;16.898;2024-01-06T14:15:53;8.95;;;3.83;;
32872;SDS011;19224;52.462;16.898;2024-01-06T14:18:24;8.57;;;4.13;;
32872;SDS011;19224;52.462;16.898;2024-01-06T14:20:57;6.87;;;3.60;;
32872;SDS011;19224;52.462;16.898;2024-01-06T14:23:32;6.87;;;4.35;;
32872;SDS011;19224;52.462;16.898;2024-01-06T14:26:02;6.30;;;3.77;;
32872;SDS011;19224;52.462;16.898;2024-01-06T14:28:33;7.37;;;4.13;;
32872;SDS011;19224;52.462;16.898;2024-01-06T14:31:04;9.40;;;4.05;;
32872;SDS011;19224;52.462;16.898;2024-01-06T14:33:34;8.43;;;3.87;;
32872;SDS011;19224;52.462;16.898;2024-01-06T14:36:05;9.63;;;4.30;;
32872;SDS011;19224;52.462;16.898;2024-01-06T14:38:36;9.78;;;4.42;;
32872;SDS011;19224;52.462;16.898;2024-01-06T14:41:06;7.47;;;3.72;;
32872;SDS011;19224;52.462;16.898;2024-01-06T14:43:36;5.00;;;3.30;;
32872;SDS011;19224;52.462;16.898;2024-01-06T14:46:07;6.75;;;3.80;;
32872;SDS011;19224;52.462;16.898;2024-01-06T14:48:37;7.90;;;4.42;;
32872;SDS011;19224;52.462;16.898;2024-01-06T14:51:08;7.90;;;4.35;;
32872;SDS011;19224;52.462;16.898;2024-01-06T14:53:38;9.90;;;4.47;;